Time;durP1;ratioP1;P1;durP2;ratioP2;P2;SDS_P1;SDS_P2;PMS_P1;PMS_P2;Temp;Humidity;BMP_temperature;BMP_pressure;BME280_temperature;BME280_humidity;BME280_pressure;Samples;Min_cycle;Max_cycle;Signal;HPM_P1;HPM_P2
2024/03/21 00:02:18;;;;;;;45.00;37.83;;;;;;;17.05;65.32;101417.94;5084809;28;20199;-82
2024/03/21 00:04:43;;;;;;;50.43;41.37;;;;;;;16.57;66.96;101414.63;5089798;28;20226;-79
2024/03/21 00:07:08;;;;;;;48.67;41.63;;;;;;;16.74;66.26;101412.81;5085936;28;20220;-79
2024/03/21 00:09:34;;;;;;;47.33;39.70;;;;;;;16.86;66.04;101410.97;5079860;28;20167;-80
2024/03/21 00:12:00;;;;;;;45.40;38.20;;;;;;;17.04;65.58;101410.03;5080997;28;20439;-80
2024/03/21 00:14:25;;;;;;;46.83;39.90;;;;;;;16.53;67.01;101407.63;5071553;28;20198;-81
2024/03/21 00:16:51;;;;;;;48.80;39.70;;;;;;;16.63;66.40;101404.09;5064138;28;20812;-80
2024/03/21 00:19:18;;;;;;;50.17;41.60;;;;;;;17.05;65.62;101399.50;5064099;28;20202;-82
2024/03/21 00:21:43;;;;;;;48.40;39.90;;;;;;;16.48;67.35;101397.13;5091688;28;20430;-79
2024/03/21 00:24:09;;;;;;;45.80;39.77;;;;;;;16.68;66.70;101389.13;5097351;28;20447;-80
2024/03/21 00:26:34;;;;;;;44.83;39.37;;;;;;;16.90;66.07;101389.94;5098976;28;20176;-80
2024/03/21 00:28:59;;;;;;;45.93;37.80;;;;;;;17.15;65.57;101390.63;5087622;28;20169;-81
2024/03/21 00:31:24;;;;;;;50.03;40.93;;;;;;;16.81;66.35;101389.94;5082588;28;20642;-81
2024/03/21 00:33:50;;;;;;;46.23;39.80;;;;;;;16.11;68.05;101387.59;5082816;28;20173;-82
2024/03/21 00:36:17;;;;;;;48.10;40.50;;;;;;;15.97;68.12;101390.28;5081824;28;20724;-82
2024/03/21 00:38:42;;;;;;;50.50;40.53;;;;;;;16.20;68.34;101391.97;5080840;28;20196;-81
2024/03/21 00:41:08;;;;;;;47.43;40.00;;;;;;;15.42;69.98;101392.94;5081571;28;20407;-81
2024/03/21 00:43:34;;;;;;;51.47;43.23;;;;;;;16.00;68.43;101390.25;5081640;28;20179;-82
2024/03/21 00:46:00;;;;;;;48.23;40.23;;;;;;;15.51;69.44;101387.69;5081486;28;20177;-82
2024/03/21 00:48:25;;;;;;;54.17;43.07;;;;;;;15.79;68.92;101385.91;5079440;28;20454;-82
2024/03/21 00:50:50;;;;;;;51.57;42.40;;;;;;;16.66;67.15;101388.28;5080281;28;20183;-82
2024/03/21 00:53:15;;;;;;;58.40;44.50;;;;;;;16.75;66.79;101377.69;5084940;28;20173;-81
2024/03/21 00:55:41;;;;;;;52.60;41.10;;;;;;;16.21;67.89;101377.94;5086166;28;20215;-80
2024/03/21 00:58:06;;;;;;;53.10;41.73;;;;;;;16.05;68.70;101370.97;5089064;28;20221;-80
2024/03/21 01:00:31;;;;;;;49.80;42.03;;;;;;;16.56;66.98;101368.13;5096407;28;20181;-81
2024/03/21 01:02:57;;;;;;;49.07;42.00;;;;;;;16.69;66.86;101372.44;5095662;28;20177;-82
2024/03/21 01:05:22;;;;;;;52.57;41.43;;;;;;;16.24;68.14;101371.81;5087264;28;20712;-81
2024/03/21 01:07:48;;;;;;;49.90;41.07;;;;;;;16.37;67.40;101354.19;5085585;28;20259;-80
2024/03/21 01:10:13;;;;;;;50.67;40.37;;;;;;;17.05;65.80;101364.34;5101176;28;20634;-81
2024/03/21 01:12:39;;;;;;;53.90;42.00;;;;;;;17.53;64.75;101356.94;5082688;28;20169;-80
2024/03/21 01:15:05;;;;;;;57.70;45.77;;;;;;;16.64;66.73;101361.06;5082065;28;20688;-80
2024/03/21 01:17:30;;;;;;;57.00;43.10;;;;;;;16.35;67.66;101353.34;5083026;28;20176;-81
2024/03/21 01:19:56;;;;;;;54.40;43.07;;;;;;;16.54;67.46;101356.75;5082235;28;20386;-82
2024/03/21 01:22:21;;;;;;;46.33;41.27;;;;;;;16.38;67.49;101350.69;5080519;28;20265;-82
2024/03/21 01:24:47;;;;;;;46.80;41.70;;;;;;;16.61;67.18;101353.19;5080363;28;20258;-82
2024/03/21 01:27:12;;;;;;;47.70;40.30;;;;;;;16.80;66.50;101352.19;5081238;28;20218;-82
2024/03/21 01:29:37;;;;;;;47.13;39.33;;;;;;;16.78;66.44;101348.72;5095889;28;20169;-82
2024/03/21 01:32:03;;;;;;;47.63;39.63;;;;;;;16.57;67.06;101351.47;5089681;28;20579;-81
2024/03/21 01:34:28;;;;;;;49.63;41.53;;;;;;;16.40;67.35;101355.06;5079132;28;20201;-80
2024/03/21 01:36:53;;;;;;;48.97;39.90;;;;;;;16.69;67.23;101351.41;5078859;28;20203;-81
2024/03/21 01:39:19;;;;;;;44.60;38.53;;;;;;;17.19;65.41;101341.41;5080667;28;20214;-81
2024/03/21 01:41:45;;;;;;;47.33;40.00;;;;;;;16.57;67.43;101351.47;5079572;28;20176;-80
2024/03/21 01:44:19;;;;;;;49.10;40.17;;;;;;;16.38;67.19;101341.03;5078818;28;20192;-81
2024/03/21 01:46:44;;;;;;;47.93;38.30;;;;;;;17.00;65.82;101330.16;5079853;28;20164;-81
2024/03/21 01:49:10;;;;;;;48.37;37.57;;;;;;;16.38;67.29;101337.53;5077555;28;20423;-81
2024/03/21 01:51:36;;;;;;;45.87;37.87;;;;;;;16.58;66.77;101340.06;5078351;28;20173;-80
2024/03/21 01:54:03;;;;;;;42.20;37.40;;;;;;;16.86;66.71;101326.69;5078054;28;20704;-81
2024/03/21 01:56:29;;;;;;;41.27;36.77;;;;;;;16.56;67.24;101332.19;5078937;28;20482;-80
2024/03/21 01:58:54;;;;;;;45.37;37.60;;;;;;;17.62;63.71;101316.44;5094393;28;20799;-80
2024/03/21 02:01:23;;;;;;;42.27;37.27;;;;;;;17.68;63.62;101311.97;5079456;28;20173;-82
2024/03/21 02:03:51;;;;;;;38.47;32.40;;;;;;;17.55;64.29;101312.09;5079434;28;20165;-81
2024/03/21 02:06:18;;;;;;;41.23;33.90;;;;;;;17.73;63.92;101308.41;5084065;28;20451;-82
2024/03/21 02:08:43;;;;;;;37.00;32.77;;;;;;;15.80;66.81;101319.34;5081503;28;20411;-81
2024/03/21 02:11:09;;;;;;;36.83;32.37;;;;;;;16.12;67.62;101309.59;5087468;28;20484;-82
2024/03/21 02:13:34;;;;;;;37.50;31.70;;;;;;;16.19;67.98;101311.28;5086229;28;20170;-82
2024/03/21 02:15:59;;;;;;;35.03;30.90;;;;;;;15.64;69.87;101321.09;5080968;28;20192;-82
2024/03/21 02:18:25;;;;;;;41.07;33.60;;;;;;;16.13;67.95;101314.84;5078004;28;20658;-82
2024/03/21 02:20:50;;;;;;;36.70;32.00;;;;;;;16.56;67.20;101311.13;5078750;28;20187;-82
2024/03/21 02:23:15;;;;;;;41.47;33.73;;;;;;;16.03;67.73;101318.38;5078520;28;20602;-81
2024/03/21 02:25:40;;;;;;;38.20;33.93;;;;;;;15.74;70.07;101315.81;5079959;28;20189;-82
2024/03/21 02:28:06;;;;;;;42.40;33.77;;;;;;;16.89;66.74;101305.63;5079625;28;20685;-82
2024/03/21 02:30:31;;;;;;;39.97;34.53;;;;;;;16.73;66.98;101311.00;5078335;28;20228;-81
2024/03/21 02:32:57;;;;;;;38.43;33.87;;;;;;;17.04;65.77;101305.53;5079357;28;20199;-82
2024/03/21 02:35:22;;;;;;;44.93;33.27;;;;;;;16.41;66.38;101314.72;5078584;28;20232;-82
2024/03/21 02:37:47;;;;;;;38.20;31.57;;;;;;;15.62;69.85;101317.56;5078360;28;20173;-81
2024/03/21 02:40:13;;;;;;;40.00;33.23;;;;;;;15.36;70.87;101307.13;5078326;28;20211;-82
2024/03/21 02:42:38;;;;;;;37.83;30.03;;;;;;;16.07;68.50;101306.09;5077807;28;20176;-82
2024/03/21 02:45:04;;;;;;;39.60;31.70;;;;;;;15.94;68.77;101289.47;5076890;28;20723;-81
2024/03/21 02:47:29;;;;;;;37.73;30.90;;;;;;;15.51;71.23;101297.47;5078549;28;20172;-82
2024/03/21 02:49:54;;;;;;;34.00;29.83;;;;;;;16.43;68.48;101294.50;5077881;28;20173;-82
2024/03/21 02:52:20;;;;;;;34.50;29.30;;;;;;;16.61;67.08;101285.63;5079917;28;20168;-81
2024/03/21 02:54:46;;;;;;;35.20;30.10;;;;;;;16.00;68.22;101287.69;5095234;28;20185;-82
2024/03/21 02:57:11;;;;;;;33.50;28.53;;;;;;;15.53;70.62;101291.31;5113792;22;21085;-78
2024/03/21 02:59:37;;;;;;;34.90;29.30;;;;;;;15.80;70.08;101274.66;5078582;28;20213;-78
2024/03/21 03:02:05;;;;;;;32.87;27.83;;;;;;;15.62;70.38;101282.53;5077719;28;20223;-78
2024/03/21 03:04:32;;;;;;;33.87;28.47;;;;;;;15.38;71.32;101281.69;5078381;28;20228;-78
2024/03/21 03:06:57;;;;;;;35.77;27.80;;;;;;;15.43;70.50;101297.47;5076796;28;20405;-78
2024/03/21 03:09:22;;;;;;;32.60;27.60;;;;;;;15.79;69.70;101304.41;5078145;28;20421;-78
2024/03/21 03:11:48;;;;;;;30.90;26.17;;;;;;;15.51;69.76;101308.84;5077602;28;20165;-78
2024/03/21 03:14:13;;;;;;;34.60;27.43;;;;;;;16.11;68.61;101308.69;5077838;28;20648;-78
2024/03/21 03:16:38;;;;;;;32.80;26.17;;;;;;;15.89;68.87;101309.69;5077044;28;20252;-77
2024/03/21 03:19:05;;;;;;;30.60;23.90;;;;;;;15.94;68.88;101315.75;5077650;28;20165;-78
2024/03/21 03:21:31;;;;;;;30.07;25.87;;;;;;;15.61;69.72;101312.31;5076238;28;20660;-77
2024/03/21 03:23:56;;;;;;;28.60;24.73;;;;;;;16.15;67.68;101312.19;5076283;28;20407;-77
2024/03/21 03:26:21;;;;;;;30.80;24.90;;;;;;;16.63;67.14;101311.97;5077628;28;20195;-78
2024/03/21 03:28:47;;;;;;;33.23;26.10;;;;;;;16.48;67.30;101310.25;5086342;28;20185;-77
2024/03/21 03:31:12;;;;;;;30.70;25.50;;;;;;;15.74;69.78;101314.06;5088406;28;20222;-78
2024/03/21 03:36:26;;;;;;;33.53;26.03;;;;;;;16.07;68.67;101319.25;5087848;28;20191;-77
2024/03/21 03:38:51;;;;;;;30.10;23.53;;;;;;;15.39;70.12;101320.25;5081432;28;20423;-77
2024/03/21 03:41:17;;;;;;;34.10;25.47;;;;;;;15.84;69.89;101320.19;5076370;28;20424;-78
2024/03/21 03:43:42;;;;;;;29.00;22.33;;;;;;;16.19;68.50;101315.69;5078833;28;20200;-77
2024/03/21 03:46:08;;;;;;;26.27;22.53;;;;;;;15.95;68.11;101300.00;5077648;28;20168;-78
2024/03/21 03:48:33;;;;;;;25.60;21.90;;;;;;;16.24;68.19;101303.41;5076198;28;20207;-77
2024/03/21 03:50:58;;;;;;;28.10;21.23;;;;;;;15.91;68.87;101306.16;5076057;28;20522;-77
2024/03/21 03:53:23;;;;;;;26.10;21.40;;;;;;;15.80;69.23;101305.31;5077773;28;20244;-78
2024/03/21 03:55:49;;;;;;;23.87;20.17;;;;;;;15.70;69.39;101304.44;5076824;28;20184;-76
2024/03/21 03:58:14;;;;;;;23.60;19.37;;;;;;;15.66;69.64;101295.66;5078171;28;20212;-77
2024/03/21 04:00:39;;;;;;;22.23;19.83;;;;;;;15.84;69.55;101301.78;5077629;28;20550;-77
2024/03/21 04:03:04;;;;;;;22.07;18.07;;;;;;;15.32;70.88;101298.34;5076543;28;20179;-78
2024/03/21 04:05:30;;;;;;;23.20;18.53;;;;;;;15.38;71.18;101307.13;5076789;28;20634;-78
2024/03/21 04:07:55;;;;;;;21.77;17.87;;;;;;;15.26;70.66;101297.50;5078316;28;20185;-77
2024/03/21 04:10:20;;;;;;;24.03;18.30;;;;;;;15.48;70.47;101288.72;5078934;28;20169;-77
2024/03/21 04:12:46;;;;;;;19.13;16.40;;;;;;;15.07;70.96;101294.00;5077786;28;20180;-78
2024/03/21 04:15:11;;;;;;;22.10;17.10;;;;;;;15.35;70.65;101294.84;5078975;28;20176;-78
2024/03/21 04:17:36;;;;;;;20.57;16.53;;;;;;;15.77;69.44;101285.13;5082835;28;20720;-77
2024/03/21 04:20:06;;;;;;;22.20;17.20;;;;;;;15.96;68.98;101285.09;5090729;28;20161;-77
2024/03/21 04:22:35;;;;;;;19.00;16.37;;;;;;;15.79;69.79;101286.00;5095644;28;20515;-78
2024/03/21 04:25:03;;;;;;;20.00;15.67;;;;;;;16.19;68.23;101286.75;5079194;28;20435;-78
2024/03/21 04:27:28;;;;;;;22.23;16.70;;;;;;;15.31;70.30;101279.97;5077841;28;20427;-77
2024/03/21 04:29:53;;;;;;;17.77;15.63;;;;;;;16.05;68.30;101274.53;5076725;28;20393;-78
2024/03/21 04:32:19;;;;;;;20.40;16.20;;;;;;;15.65;69.63;101280.78;5078173;28;20169;-77
2024/03/21 04:34:44;;;;;;;18.40;15.10;;;;;;;15.38;70.56;101275.59;5078628;28;20647;-78
2024/03/21 04:37:15;;;;;;;19.33;15.53;;;;;;;16.25;68.12;101276.19;5078095;28;20200;-77
2024/03/21 04:39:41;;;;;;;16.63;14.83;;;;;;;15.42;69.15;101278.19;5079923;28;20662;-77
2024/03/21 04:42:07;;;;;;;16.43;14.50;;;;;;;15.87;69.03;101285.13;5078736;28;20406;-77
2024/03/21 04:44:32;;;;;;;16.90;14.27;;;;;;;16.15;68.30;101278.00;5078064;28;20173;-77
2024/03/21 04:46:57;;;;;;;16.07;13.90;;;;;;;16.21;68.09;101274.47;5077403;28;20189;-77
2024/03/21 04:49:23;;;;;;;15.80;14.07;;;;;;;15.89;68.57;101276.34;5075752;28;20177;-77
2024/03/21 04:51:48;;;;;;;14.90;13.40;;;;;;;15.99;68.16;101280.72;5075041;28;20571;-77
2024/03/21 04:54:13;;;;;;;15.87;14.20;;;;;;;16.73;66.28;101274.13;5077469;28;20180;-78
2024/03/21 04:56:38;;;;;;;15.73;14.10;;;;;;;16.18;66.73;101280.59;5076185;28;20712;-77
2024/03/21 04:59:04;;;;;;;17.30;14.07;;;;;;;15.57;69.11;101290.44;5076436;28;20268;-77
2024/03/21 05:01:30;;;;;;;19.20;13.80;;;;;;;16.07;68.10;101288.53;5076445;28;20177;-77
2024/03/21 05:03:56;;;;;;;15.10;13.57;;;;;;;15.22;69.52;101287.84;5075317;28;20234;-77
2024/03/21 05:06:21;;;;;;;16.47;14.67;;;;;;;15.80;68.97;101297.41;5076043;28;20394;-77
2024/03/21 05:08:46;;;;;;;16.40;14.57;;;;;;;15.69;69.24;101286.91;5074072;28;20291;-78
2024/03/21 05:11:11;;;;;;;17.50;14.70;;;;;;;15.93;68.35;101278.09;5075913;28;20165;-76
2024/03/21 05:13:37;;;;;;;17.20;14.70;;;;;;;15.68;69.11;101274.63;5075786;28;20165;-77
2024/03/21 05:16:03;;;;;;;28.03;22.80;;;;;;;16.06;68.14;101276.28;5075376;28;20744;-78
2024/03/21 05:18:28;;;;;;;41.43;28.60;;;;;;;15.19;69.87;101275.59;5076369;28;20252;-78
2024/03/21 05:20:53;;;;;;;16.60;14.80;;;;;;;15.70;69.00;101274.66;5075905;28;20172;-78
2024/03/21 05:23:18;;;;;;;21.07;18.87;;;;;;;15.20;69.59;101272.09;5075245;28;20169;-78
2024/03/21 05:25:44;;;;;;;21.27;17.90;;;;;;;15.73;68.75;101257.09;5071028;28;20170;-78
2024/03/21 05:28:09;;;;;;;19.20;14.60;;;;;;;15.73;68.79;101259.72;5056017;28;20193;-77
2024/03/21 05:30:35;;;;;;;19.90;16.70;;;;;;;15.23;69.83;101263.34;5055648;28;20161;-78
2024/03/21 05:33:00;;;;;;;17.83;14.50;;;;;;;15.47;69.61;101262.44;5055679;28;20181;-77
2024/03/21 05:35:25;;;;;;;19.37;16.77;;;;;;;15.56;69.10;101259.78;5056023;28;20208;-78
2024/03/21 05:37:51;;;;;;;17.50;15.07;;;;;;;15.22;69.26;101262.50;5055262;28;20190;-78
2024/03/21 05:40:16;;;;;;;19.57;15.90;;;;;;;15.26;69.89;101256.34;5055719;28;20209;-78
2024/03/21 05:42:44;;;;;;;15.70;14.10;;;;;;;15.17;70.25;101266.88;5060381;28;20212;-78
2024/03/21 05:45:10;;;;;;;18.00;14.57;;;;;;;15.62;68.43;101267.63;5060839;28;20655;-78
2024/03/21 05:47:35;;;;;;;15.03;13.43;;;;;;;15.49;69.28;101269.44;5062997;28;20436;-78
2024/03/21 05:50:00;;;;;;;15.73;14.00;;;;;;;15.58;68.45;101286.06;5055771;28;20209;-81
2024/03/21 05:52:26;;;;;;;15.07;13.57;;;;;;;15.38;68.46;101281.69;5053758;28;20173;-78
2024/03/21 05:54:51;;;;;;;15.37;13.27;;;;;;;15.56;68.33;101286.06;5055567;28;20177;-76
2024/03/21 05:57:17;;;;;;;17.00;14.67;;;;;;;15.11;68.80;101290.50;5054951;28;20252;-78
2024/03/21 05:59:43;;;;;;;17.23;14.47;;;;;;;15.51;67.95;101297.47;5055031;28;20205;-78
2024/03/21 06:02:08;;;;;;;15.27;13.67;;;;;;;15.41;67.61;101297.50;5055433;28;20631;-76
2024/03/21 06:04:35;;;;;;;15.07;13.50;;;;;;;14.91;67.38;101309.75;5063726;28;20408;-78
2024/03/21 06:07:00;;;;;;;16.47;14.67;;;;;;;14.26;68.94;101314.84;5065738;28;20581;-78
2024/03/21 06:09:28;;;;;;;15.90;13.37;;;;;;;14.00;68.92;101314.69;5064442;28;20425;-78
2024/03/21 06:11:53;;;;;;;14.43;12.67;;;;;;;13.45;69.63;101325.75;5053695;28;20219;-78
2024/03/21 06:14:18;;;;;;;17.03;15.10;;;;;;;13.00;70.83;101341.03;5066054;28;20867;-77
2024/03/21 06:16:44;;;;;;;19.00;15.00;;;;;;;12.78;71.24;101337.34;5074274;28;20188;-78
2024/03/21 06:19:09;;;;;;;19.80;16.33;;;;;;;13.12;70.29;101338.56;5074431;28;20719;-77
2024/03/21 06:21:34;;;;;;;16.17;14.43;;;;;;;13.84;68.69;101339.09;5073339;28;20172;-77
2024/03/21 06:24:00;;;;;;;24.20;19.10;;;;;;;12.97;69.60;101349.78;5075759;28;20176;-77
2024/03/21 06:26:25;;;;;;;26.10;19.10;;;;;;;13.27;69.74;101343.03;5074860;28;20179;-77
2024/03/21 06:28:50;;;;;;;27.37;22.10;;;;;;;13.30;69.03;101352.63;5073996;28;20220;-77
2024/03/21 06:31:16;;;;;;;18.80;15.80;;;;;;;12.97;69.63;101351.50;5075477;28;20173;-78
2024/03/21 06:33:41;;;;;;;20.37;15.57;;;;;;;13.04;69.88;101360.28;5076773;28;20175;-78
2024/03/21 06:36:06;;;;;;;20.20;15.33;;;;;;;13.41;68.13;101363.22;5076587;28;20631;-77
2024/03/21 06:38:32;;;;;;;18.17;15.87;;;;;;;13.85;66.63;101357.44;5075995;28;20211;-78
2024/03/21 06:40:57;;;;;;;17.03;13.97;;;;;;;13.75;65.98;101366.13;5075056;28;20552;-78
2024/03/21 06:43:23;;;;;;;16.47;13.80;;;;;;;13.77;65.91;101365.28;5075202;28;20251;-78
2024/03/21 06:45:55;;;;;;;18.10;13.50;;;;;;;13.24;65.71;101373.56;5076137;28;20667;-78
2024/03/21 06:48:21;;;;;;;13.83;11.90;;;;;;;13.20;65.91;101374.41;5074689;28;20428;-78
2024/03/21 06:50:47;;;;;;;16.97;12.27;;;;;;;13.16;65.97;101367.38;5074941;28;20421;-76
2024/03/21 06:53:12;;;;;;;14.10;12.70;;;;;;;13.66;64.95;101360.81;5073243;28;20407;-77
2024/03/21 06:55:37;;;;;;;14.57;12.30;;;;;;;13.55;64.29;101359.00;5075313;28;20189;-78
2024/03/21 06:58:03;;;;;;;14.10;12.60;;;;;;;13.84;64.55;101354.81;5074491;28;20580;-78
2024/03/21 07:00:29;;;;;;;14.40;12.97;;;;;;;13.83;64.37;101367.06;5073234;28;20173;-78
2024/03/21 07:02:57;;;;;;;13.70;12.30;;;;;;;13.74;64.60;101364.38;5073631;28;20414;-79
2024/03/21 07:05:25;;;;;;;14.87;12.60;;;;;;;13.57;64.35;101373.00;5079703;28;20169;-77
2024/03/21 07:07:52;;;;;;;16.17;13.07;;;;;;;13.14;65.75;101370.84;5083179;28;20431;-77
2024/03/21 07:10:19;;;;;;;13.70;11.87;;;;;;;13.55;65.39;101372.09;5076738;28;20903;-78
2024/03/21 07:12:44;;;;;;;13.70;12.30;;;;;;;14.05;63.84;101365.41;5075312;28;20435;-78
2024/03/21 07:15:10;;;;;;;12.07;10.77;;;;;;;13.86;64.53;101371.44;5074632;28;20394;-78
2024/03/21 07:17:35;;;;;;;13.17;11.83;;;;;;;14.04;63.56;101378.53;5073372;28;20212;-77
2024/03/21 07:20:00;;;;;;;15.93;13.30;;;;;;;14.03;63.65;101377.66;5073928;28;20710;-78
2024/03/21 07:22:26;;;;;;;14.60;12.40;;;;;;;13.77;64.45;101388.88;5074158;28;20204;-77
2024/03/21 07:24:51;;;;;;;13.87;12.10;;;;;;;12.40;66.91;101393.59;5074495;28;20222;-77
2024/03/21 07:27:17;;;;;;;15.60;11.20;;;;;;;12.72;67.31;101390.50;5075715;28;20184;-78
2024/03/21 07:29:43;;;;;;;13.03;11.30;;;;;;;12.73;66.59;101391.34;5076541;28;20252;-78
2024/03/21 07:32:08;;;;;;;14.90;11.20;;;;;;;12.67;67.23;101405.25;5074358;28;20439;-78
2024/03/21 07:34:37;;;;;;;15.60;10.87;;;;;;;12.40;68.02;101403.19;5074529;28;20264;-78
2024/03/21 07:37:04;;;;;;;15.10;11.20;;;;;;;13.06;66.86;101411.78;5073108;28;20270;-78
2024/03/21 07:39:30;;;;;;;19.63;11.60;;;;;;;12.59;67.61;101410.38;5075302;28;20464;-78
2024/03/21 07:41:55;;;;;;;12.13;10.00;;;;;;;12.65;68.05;101430.53;5077904;28;20815;-78
2024/03/21 07:44:21;;;;;;;16.33;10.10;;;;;;;13.06;67.04;101422.25;5077508;28;20173;-77
2024/03/21 07:46:46;;;;;;;18.30;10.70;;;;;;;13.51;66.10;101424.47;5081108;28;20169;-77
2024/03/21 07:49:12;;;;;;;16.30;10.47;;;;;;;13.38;66.29;101418.22;5078262;28;20654;-77
2024/03/21 07:51:38;;;;;;;15.00;9.03;;;;;;;12.24;68.18;101429.09;5079258;28;20187;-77
2024/03/21 07:54:04;;;;;;;13.73;9.23;;;;;;;12.60;68.13;101429.59;5086930;28;20374;-78
2024/03/21 07:56:29;;;;;;;11.70;8.50;;;;;;;12.88;67.74;101424.66;5091141;28;20443;-78
2024/03/21 07:58:55;;;;;;;16.90;8.97;;;;;;;12.71;68.07;101429.72;5079607;28;20378;-77
2024/03/21 08:01:23;;;;;;;15.73;9.30;;;;;;;12.00;68.74;101442.72;5077299;28;20203;-78
2024/03/21 08:03:49;;;;;;;11.67;9.20;;;;;;;12.86;67.61;101442.09;5078290;28;20172;-78
2024/03/21 08:06:15;;;;;;;13.10;9.40;;;;;;;12.76;67.85;101448.97;5079614;28;20751;-79
2024/03/21 08:08:41;;;;;;;12.17;9.93;;;;;;;12.80;68.16;101450.78;5075377;28;20563;-77
2024/03/21 08:11:06;;;;;;;12.53;9.43;;;;;;;12.98;67.39;101447.47;5076717;28;20482;-77
2024/03/21 08:13:31;;;;;;;12.30;9.50;;;;;;;13.13;67.38;101452.84;5076962;28;20668;-79
2024/03/21 08:15:57;;;;;;;12.80;9.80;;;;;;;13.28;67.19;101451.28;5077678;28;20199;-78
2024/03/21 08:18:23;;;;;;;14.10;9.40;;;;;;;13.43;66.23;101466.28;5077439;28;20622;-76
2024/03/21 08:20:48;;;;;;;11.10;9.20;;;;;;;13.17;66.91;101466.88;5083842;28;20169;-78
2024/03/21 08:23:15;;;;;;;9.70;8.47;;;;;;;13.01;67.00;101463.19;5082756;28;20439;-78
2024/03/21 08:25:40;;;;;;;13.13;8.90;;;;;;;13.31;66.29;101465.28;5078082;28;20169;-78
2024/03/21 08:28:06;;;;;;;11.40;8.73;;;;;;;12.80;67.75;101469.94;5079889;28;20821;-78
2024/03/21 08:30:31;;;;;;;12.50;7.80;;;;;;;13.22;66.76;101469.53;5078629;28;20177;-78
2024/03/21 08:32:56;;;;;;;8.23;7.23;;;;;;;13.07;66.96;101467.63;5081994;28;20260;-78
2024/03/21 08:35:22;;;;;;;10.20;8.17;;;;;;;13.06;67.22;101476.38;5085451;28;20169;-78
2024/03/21 08:37:47;;;;;;;9.27;7.43;;;;;;;12.99;67.32;101472.78;5084380;28;20197;-78
2024/03/21 08:40:15;;;;;;;11.30;7.50;;;;;;;13.00;67.59;101479.75;5082421;28;20176;-78
2024/03/21 08:42:40;;;;;;;10.40;8.07;;;;;;;12.64;67.31;101481.94;5078964;28;20173;-78
2024/03/21 08:45:09;;;;;;;8.90;7.60;;;;;;;12.84;67.67;101483.06;5077092;28;20430;-78
2024/03/21 08:47:35;;;;;;;12.60;8.43;;;;;;;12.90;67.56;101484.00;5077420;28;20215;-79
2024/03/21 08:50:00;;;;;;;11.17;8.43;;;;;;;13.19;66.95;101486.09;5076814;28;20907;-77
2024/03/21 08:52:26;;;;;;;10.67;8.60;;;;;;;13.17;67.45;101500.03;5076418;28;20407;-78
2024/03/21 08:54:51;;;;;;;12.10;7.80;;;;;;;13.31;66.95;101506.28;5078113;28;20252;-77
2024/03/21 08:57:16;;;;;;;16.93;9.33;;;;;;;13.74;66.33;101503.25;5097091;22;20228;-78
2024/03/21 08:59:41;;;;;;;9.57;7.73;;;;;;;13.78;66.24;101508.53;5074360;28;20185;-78
2024/03/21 09:02:07;;;;;;;11.90;9.00;;;;;;;14.15;65.55;101514.06;5073289;28;20169;-79
2024/03/21 09:04:33;;;;;;;11.20;8.53;;;;;;;13.91;66.35;101535.72;5072622;28;20200;-79
2024/03/21 09:06:58;;;;;;;17.20;8.93;;;;;;;13.93;65.79;101535.75;5073017;28;20388;-78
2024/03/21 09:09:24;;;;;;;14.13;9.00;;;;;;;12.74;69.22;101545.72;5071756;28;20188;-77
2024/03/21 09:11:49;;;;;;;9.97;8.73;;;;;;;13.56;67.64;101543.28;5075577;28;20234;-77
2024/03/21 09:14:14;;;;;;;13.17;9.93;;;;;;;13.58;67.02;101546.75;5073079;28;20218;-78
2024/03/21 09:16:40;;;;;;;12.60;10.10;;;;;;;13.61;67.48;101557.25;5076635;28;20209;-78
2024/03/21 09:19:05;;;;;;;13.73;10.60;;;;;;;14.04;66.79;101562.91;5077994;28;20225;-79
2024/03/21 09:21:31;;;;;;;16.53;11.43;;;;;;;12.99;68.29;101572.25;5076000;28;20199;-78
2024/03/21 09:23:57;;;;;;;14.30;11.63;;;;;;;13.77;67.53;101569.69;5074173;28;20176;-77
2024/03/21 09:26:22;;;;;;;13.37;11.50;;;;;;;14.17;66.61;101581.38;5066744;28;20185;-79
2024/03/21 09:28:48;;;;;;;14.30;12.13;;;;;;;14.07;67.09;101581.31;5053200;28;20189;-78
2024/03/21 09:31:13;;;;;;;16.70;14.10;;;;;;;14.43;66.07;101578.97;5055122;28;20174;-78
2024/03/21 09:33:38;;;;;;;17.43;14.70;;;;;;;14.31;67.11;101580.63;5052882;28;20547;-78
2024/03/21 09:36:06;;;;;;;18.07;13.63;;;;;;;14.67;65.77;101583.53;5051620;28;20189;-78
2024/03/21 09:38:32;;;;;;;16.00;13.70;;;;;;;14.03;66.92;101592.63;5053371;28;20197;-78
2024/03/21 09:41:00;;;;;;;17.43;13.70;;;;;;;14.01;67.60;101581.25;5053361;28;20440;-77
2024/03/21 09:43:25;;;;;;;17.07;14.73;;;;;;;14.16;66.94;101588.38;5052120;28;20442;-77
2024/03/21 09:45:54;;;;;;;16.57;13.83;;;;;;;13.97;67.39;101587.31;5052324;28;20806;-78
2024/03/21 09:48:22;;;;;;;17.13;15.17;;;;;;;14.27;67.05;101586.69;5050787;28;20212;-78
2024/03/21 09:50:48;;;;;;;19.80;14.80;;;;;;;14.12;67.67;101582.19;5052346;28;20412;-77
2024/03/21 09:53:16;;;;;;;20.73;16.90;;;;;;;14.42;66.67;101587.69;5052285;28;20408;-77
2024/03/21 09:55:48;;;;;;;20.53;15.57;;;;;;;14.90;65.50;101588.03;5052328;28;20201;-78
2024/03/21 09:58:15;;;;;;;18.03;15.73;;;;;;;14.84;66.07;101588.84;5052206;28;20455;-78
2024/03/21 10:00:41;;;;;;;21.50;16.47;;;;;;;15.01;66.19;101599.47;5051954;28;20440;-78
2024/03/21 10:03:11;;;;;;;20.63;17.00;;;;;;;14.83;66.98;101592.38;5052028;28;20416;-78
2024/03/21 10:05:36;;;;;;;18.47;16.03;;;;;;;14.89;65.66;101596.78;5052328;28;20443;-77
2024/03/21 10:08:01;;;;;;;17.97;16.07;;;;;;;15.37;64.75;101600.50;5052929;28;20436;-79
2024/03/21 10:10:27;;;;;;;17.87;15.60;;;;;;;15.10;65.19;101612.66;5051267;28;20173;-77
2024/03/21 10:12:52;;;;;;;16.30;14.70;;;;;;;14.51;65.97;101613.13;5052222;28;20219;-78
2024/03/21 10:15:18;;;;;;;15.30;13.70;;;;;;;15.25;65.24;101608.31;5071042;28;20177;-78
2024/03/21 10:17:43;;;;;;;16.70;14.17;;;;;;;15.02;65.37;101616.09;5072212;28;20200;-78
2024/03/21 10:20:09;;;;;;;13.70;11.80;;;;;;;15.26;64.75;101617.97;5070526;28;20206;-79
2024/03/21 10:22:35;;;;;;;15.03;13.40;;;;;;;15.37;64.59;101616.28;5072060;28;20294;-78
2024/03/21 10:25:04;;;;;;;8.70;7.83;;;;;;;15.72;63.87;101615.50;5071448;28;20443;-78
2024/03/21 10:27:30;;;;;;;9.90;8.97;;;;;;;15.63;63.42;101607.59;5053872;28;20193;-77
2024/03/21 10:29:57;;;;;;;6.60;5.90;;;;;;;15.18;64.15;101615.31;5053613;28;20397;-78
2024/03/21 10:32:23;;;;;;;6.17;5.57;;;;;;;15.41;63.48;101612.78;5054074;28;20469;-77
2024/03/21 10:34:53;;;;;;;6.83;5.47;;;;;;;15.38;63.95;101628.50;5052038;28;20473;-79
2024/03/21 10:37:20;;;;;;;6.07;5.47;;;;;;;15.41;64.15;101632.91;5051848;28;20557;-78
2024/03/21 10:39:47;;;;;;;6.60;5.03;;;;;;;15.43;63.82;101637.31;5051970;28;20759;-80
2024/03/21 10:42:27;;;;;;;5.73;5.13;;;;;;;15.72;63.87;101633.91;5052511;28;20423;-78
2024/03/21 10:44:55;;;;;;;7.00;5.10;;;;;;;15.35;65.06;101646.91;5054567;28;20970;-80
2024/03/21 10:47:20;;;;;;;9.73;6.57;;;;;;;15.16;64.47;101654.69;5053096;28;20826;-79
2024/03/21 10:49:48;;;;;;;5.50;5.00;;;;;;;14.89;64.89;101660.66;5052664;28;20413;-78
2024/03/21 10:52:14;;;;;;;7.57;6.77;;;;;;;14.79;64.77;101669.34;5053463;28;20180;-78
2024/03/21 10:54:41;;;;;;;8.30;7.50;;;;;;;14.82;64.59;101674.63;5050872;28;20415;-77
2024/03/21 10:57:24;;;;;;;9.10;8.30;;;;;;;14.67;64.36;101680.63;5051505;28;20462;-77
2024/03/21 11:00:06;;;;;;;11.20;8.97;;;;;;;14.59;64.98;101690.16;5051525;28;20506;-78
2024/03/21 11:02:31;;;;;;;10.23;9.20;;;;;;;14.53;64.90;101691.00;5051686;28;20541;-78
2024/03/21 11:05:09;;;;;;;10.00;9.00;;;;;;;15.09;62.85;101696.69;5051308;28;20473;-77
2024/03/21 11:07:34;;;;;;;10.23;8.87;;;;;;;15.02;63.02;101700.13;5051198;28;20197;-77
2024/03/21 11:10:02;;;;;;;9.47;8.47;;;;;;;14.87;63.07;101699.16;5051477;28;20916;-77